createdAt,value
2022-09-17T00:02:56.775Z,3.20
2022-09-17T00:09:11.348Z,3.13
2022-09-17T00:12:23.112Z,3.17
2022-09-17T00:15:53.730Z,3.00
2022-09-17T00:19:08.543Z,2.83
2022-09-17T00:22:30.931Z,3.40
2022-09-17T00:25:31.052Z,3.30
2022-09-17T00:28:37.510Z,3.10
2022-09-17T00:35:01.495Z,3.70
2022-09-17T00:38:24.256Z,3.47
2022-09-17T00:41:24.775Z,3.50
2022-09-17T00:45:00.148Z,3.17
2022-09-17T00:48:19.174Z,3.07
2022-09-17T00:51:31.418Z,3.57
2022-09-17T00:54:43.881Z,2.87
2022-09-17T00:57:47.130Z,2.70
2022-09-17T01:00:59.388Z,3.47
2022-09-17T01:07:33.662Z,2.90
2022-09-17T01:14:46.090Z,3.13
2022-09-17T01:17:49.509Z,2.80
2022-09-17T01:21:35.847Z,3.10
2022-09-17T01:28:52.847Z,3.57
2022-09-17T01:35:20.375Z,2.57
2022-09-17T01:38:29.142Z,2.93
2022-09-17T01:41:32.318Z,3.57
2022-09-17T01:48:07.397Z,3.00
2022-09-17T01:51:14.348Z,3.17
2022-09-17T01:57:38.805Z,2.70
2022-09-17T02:00:47.324Z,2.50
2022-09-17T02:03:53.409Z,2.57
2022-09-17T02:10:43.095Z,2.63
2022-09-17T02:14:13.326Z,2.33
2022-09-17T02:17:40.595Z,2.10
2022-09-17T02:20:49.198Z,2.50
2022-09-17T02:24:02.089Z,2.50
2022-09-17T02:27:09.834Z,2.20
2022-09-17T02:33:41.861Z,2.87
2022-09-17T02:37:04.510Z,2.40
2022-09-17T02:40:25.203Z,2.03
2022-09-17T02:43:46.435Z,2.20
2022-09-17T02:46:55.540Z,2.27
2022-09-17T02:50:37.238Z,2.10
2022-09-17T02:53:58.155Z,2.23
2022-09-17T02:57:02.168Z,1.87
2022-09-17T03:00:14.560Z,2.40
2022-09-17T03:03:21.472Z,2.27
2022-09-17T03:06:29.838Z,2.40
2022-09-17T03:09:45.403Z,2.43
2022-09-17T03:12:41.955Z,2.00
2022-09-17T03:15:49.044Z,1.97
2022-09-17T03:19:00.047Z,2.33
2022-09-17T03:22:03.662Z,2.17
2022-09-17T03:24:58.431Z,2.60
2022-09-17T03:28:05.919Z,2.13
2022-09-17T03:31:09.381Z,2.43
2022-09-17T03:34:10.761Z,2.07
2022-09-17T03:37:32.728Z,2.37
2022-09-17T03:40:41.213Z,2.30
2022-09-17T03:44:06.043Z,1.90
2022-09-17T03:47:16.745Z,3.17
2022-09-17T03:50:20.258Z,2.87
2022-09-17T03:53:27.948Z,1.90
2022-09-17T03:56:25.803Z,2.00
2022-09-17T03:59:24.452Z,2.83
2022-09-17T04:02:38.276Z,1.77
2022-09-17T04:05:44.050Z,1.80
2022-09-17T04:08:56.120Z,2.00
2022-09-17T04:12:04.653Z,2.27
2022-09-17T04:18:22.892Z,2.50
2022-09-17T04:21:25.678Z,1.97
2022-09-17T04:24:24.898Z,2.10
2022-09-17T04:27:43.160Z,1.80
2022-09-17T04:30:52.692Z,1.93
2022-09-17T04:33:55.559Z,1.80
2022-09-17T04:36:50.284Z,2.23
2022-09-17T04:40:08.073Z,2.47
2022-09-17T04:43:31.801Z,2.10
2022-09-17T04:46:36.088Z,2.17
2022-09-17T04:49:36.161Z,2.10
2022-09-17T04:52:32.172Z,2.10
2022-09-17T04:55:32.742Z,2.20
2022-09-17T04:58:49.520Z,2.20
2022-09-17T05:02:08.887Z,1.80
2022-09-17T05:08:28.533Z,1.80
2022-09-17T05:11:23.721Z,2.37
2022-09-17T05:14:47.334Z,2.10
2022-09-17T05:17:42.341Z,1.77
2022-09-17T05:20:39.864Z,2.00
2022-09-17T05:23:42.830Z,2.40
2022-09-17T05:26:51.254Z,1.90
2022-09-17T05:30:14.510Z,2.23
2022-09-17T05:33:23.576Z,2.43
2022-09-17T05:36:26.819Z,2.37
2022-09-17T05:39:59.377Z,1.70
2022-09-17T05:43:12.830Z,1.80
2022-09-17T05:46:15.386Z,2.40
2022-09-17T05:49:27.467Z,1.80
2022-09-17T05:52:50.708Z,1.93
2022-09-17T05:56:05.352Z,1.83
2022-09-17T05:59:19.138Z,2.43
2022-09-17T06:02:15.987Z,2.13
2022-09-17T06:05:08.895Z,2.33
2022-09-17T06:08:03.614Z,1.87
2022-09-17T06:10:54.002Z,1.60
2022-09-17T06:13:44.470Z,2.30
2022-09-17T06:16:41.264Z,2.23
2022-09-17T06:19:36.234Z,2.40
2022-09-17T06:22:26.815Z,2.20
2022-09-17T06:25:31.555Z,1.87
2022-09-17T06:28:24.470Z,2.20
2022-09-17T06:31:16.519Z,1.87
2022-09-17T06:34:08.684Z,2.63
2022-09-17T06:37:07.969Z,2.40
2022-09-17T06:40:10.636Z,2.10
2022-09-17T06:43:01.311Z,2.33
2022-09-17T06:45:53.574Z,2.33
2022-09-17T06:48:46.482Z,1.87
2022-09-17T06:51:44.206Z,1.80
2022-09-17T06:54:40.927Z,1.57
2022-09-17T06:57:37.583Z,1.67
2022-09-17T07:00:49.562Z,1.40
2022-09-17T07:03:38.096Z,1.60
2022-09-17T07:06:34.112Z,1.87
2022-09-17T07:09:26.024Z,1.50
2022-09-17T07:12:17.508Z,1.50
2022-09-17T07:15:06.151Z,1.53
2022-09-17T07:17:59.382Z,1.37
2022-09-17T07:20:57.301Z,1.10
2022-09-17T07:23:55.177Z,0.97
2022-09-17T07:26:45.188Z,1.57
2022-09-17T07:29:37.878Z,1.33
2022-09-17T07:32:32.017Z,1.20
2022-09-17T07:35:33.812Z,1.47
2022-09-17T07:38:22.711Z,0.90
2022-09-17T07:41:15.747Z,0.87
2022-09-17T07:44:07.826Z,0.90
2022-09-17T07:46:57.492Z,1.40
2022-09-17T07:49:48.074Z,1.30
2022-09-17T07:52:36.240Z,1.70
2022-09-17T07:55:28.446Z,1.40
2022-09-17T07:58:20.732Z,1.87
2022-09-17T08:01:10.658Z,3.70
2022-09-17T08:04:00.156Z,6.37
2022-09-17T08:06:48.926Z,23.43
2022-09-17T08:09:38.127Z,13.50
2022-09-17T08:12:29.004Z,5.57
2022-09-17T08:15:17.330Z,2.53
2022-09-17T08:18:05.842Z,5.10
2022-09-17T08:20:58.420Z,2.20
2022-09-17T08:23:46.701Z,1.40
2022-09-17T08:26:35.936Z,1.47
2022-09-17T08:29:24.089Z,1.40
2022-09-17T08:32:14.974Z,1.77
2022-09-17T08:35:03.114Z,1.60
2022-09-17T08:37:57.042Z,1.90
2022-09-17T08:40:57.026Z,1.67
2022-09-17T08:43:51.072Z,1.40
2022-09-17T08:46:46.028Z,1.70
2022-09-17T08:49:36.864Z,1.43
2022-09-17T08:52:49.193Z,1.67
2022-09-17T08:55:44.231Z,1.40
2022-09-17T08:58:57.115Z,1.57
2022-09-17T09:01:53.388Z,1.33
2022-09-17T09:05:03.139Z,1.03
2022-09-17T09:07:57.116Z,0.83
2022-09-17T09:10:54.474Z,1.10
2022-09-17T09:13:51.220Z,0.80
2022-09-17T09:16:46.137Z,0.70
2022-09-17T09:19:43.068Z,0.77
2022-09-17T09:22:42.043Z,1.07
2022-09-17T09:25:37.734Z,0.73
2022-09-17T09:28:46.341Z,1.37
2022-09-17T09:31:59.643Z,1.37
2022-09-17T09:34:50.481Z,0.90
2022-09-17T09:37:43.024Z,0.70
2022-09-17T09:40:42.394Z,0.67
2022-09-17T09:44:00.003Z,0.73
2022-09-17T09:46:59.116Z,0.50
2022-09-17T09:50:05.395Z,2.20
2022-09-17T09:53:04.220Z,0.80
2022-09-17T09:56:04.274Z,0.73
2022-09-17T09:58:53.727Z,0.70
2022-09-17T10:01:46.343Z,0.97
2022-09-17T10:04:34.811Z,0.60
2022-09-17T10:07:22.987Z,0.67
2022-09-17T10:10:11.751Z,0.83
2022-09-17T10:13:07.682Z,0.60
2022-09-17T10:15:57.561Z,0.70
2022-09-17T10:18:46.446Z,0.67
2022-09-17T10:21:37.037Z,1.30
2022-09-17T10:24:27.922Z,0.80
2022-09-17T10:27:19.251Z,0.97
2022-09-17T10:30:17.383Z,0.67
2022-09-17T10:33:18.309Z,1.20
2022-09-17T10:36:09.974Z,0.93
2022-09-17T10:38:59.711Z,0.90
2022-09-17T10:41:55.499Z,0.90
2022-09-17T10:44:52.993Z,0.90
2022-09-17T10:47:43.991Z,0.97
2022-09-17T10:50:38.056Z,0.93
2022-09-17T10:53:27.899Z,0.80
2022-09-17T10:56:25.101Z,0.90
2022-09-17T10:59:42.265Z,0.90
2022-09-17T11:03:06.133Z,0.80
2022-09-17T11:06:28.334Z,0.93
2022-09-17T11:09:30.825Z,1.00
2022-09-17T11:12:38.207Z,1.07
2022-09-17T11:15:36.504Z,1.30
2022-09-17T11:18:43.708Z,1.20
2022-09-17T11:21:45.320Z,0.90
2022-09-17T11:24:55.606Z,1.20
2022-09-17T11:28:05.229Z,1.10
2022-09-17T11:31:05.615Z,0.93
2022-09-17T11:34:13.574Z,0.90
2022-09-17T11:37:10.181Z,0.90
2022-09-17T11:40:02.758Z,1.03
2022-09-17T11:42:54.921Z,1.10
2022-09-17T11:45:53.137Z,1.30
2022-09-17T11:48:47.297Z,1.03
2022-09-17T11:51:39.239Z,1.10
2022-09-17T11:54:32.257Z,1.10
2022-09-17T11:57:23.480Z,1.10
2022-09-17T12:00:17.886Z,1.17
2022-09-17T12:03:14.175Z,1.30
2022-09-17T12:06:06.809Z,1.20
2022-09-17T12:08:59.457Z,1.20
2022-09-17T12:11:54.223Z,1.30
2022-09-17T12:14:48.657Z,1.50
2022-09-17T12:17:43.235Z,1.27
2022-09-17T12:20:34.877Z,1.50
2022-09-17T12:23:35.609Z,1.53
2022-09-17T12:26:35.326Z,1.00
2022-09-17T12:29:36.728Z,1.43
2022-09-17T12:32:54.114Z,1.40
2022-09-17T12:36:05.612Z,1.67
2022-09-17T12:39:27.253Z,1.60
2022-09-17T12:42:31.258Z,1.37
2022-09-17T12:45:35.876Z,1.87
2022-09-17T12:48:55.506Z,1.50
2022-09-17T12:51:55.635Z,1.60
2022-09-17T12:55:01.294Z,1.37
2022-09-17T12:58:00.129Z,1.60
2022-09-17T13:00:56.922Z,1.20
2022-09-17T13:03:51.006Z,1.50
2022-09-17T13:07:15.736Z,1.43
2022-09-17T13:10:26.277Z,1.73
2022-09-17T13:13:29.014Z,1.67
2022-09-17T13:16:25.012Z,1.40
2022-09-17T13:19:26.431Z,1.90
2022-09-17T13:22:23.833Z,1.53
2022-09-17T13:25:14.302Z,1.80
2022-09-17T13:28:08.418Z,1.43
2022-09-17T13:30:58.828Z,1.50
2022-09-17T13:33:57.087Z,1.70
2022-09-17T13:36:52.471Z,1.57
2022-09-17T13:39:44.366Z,1.30
2022-09-17T13:42:44.133Z,1.40
2022-09-17T13:45:34.399Z,1.10
2022-09-17T13:48:25.010Z,1.30
2022-09-17T13:51:52.732Z,1.10
2022-09-17T13:54:43.262Z,1.10
2022-09-17T13:57:34.408Z,1.20
2022-09-17T14:00:53.295Z,1.33
2022-09-17T14:04:00.289Z,1.13
2022-09-17T14:06:53.631Z,1.03
2022-09-17T14:09:54.056Z,0.90
2022-09-17T14:12:57.517Z,0.60
2022-09-17T14:16:22.846Z,0.93
2022-09-17T14:19:51.317Z,0.70
2022-09-17T14:22:41.626Z,0.60
2022-09-17T14:25:39.117Z,0.60
2022-09-17T14:28:35.003Z,0.50
2022-09-17T14:31:32.317Z,0.50
2022-09-17T14:34:25.841Z,0.70
2022-09-17T14:37:19.322Z,0.40
2022-09-17T14:40:18.033Z,0.67
2022-09-17T14:43:06.296Z,0.63
2022-09-17T14:45:55.221Z,1.00
2022-09-17T14:48:43.385Z,1.00
2022-09-17T14:51:32.469Z,1.10
2022-09-17T14:54:24.787Z,1.30
2022-09-17T14:57:29.909Z,1.00
2022-09-17T15:00:26.128Z,0.90
2022-09-17T15:03:22.111Z,0.97
2022-09-17T15:06:24.615Z,1.20
2022-09-17T15:09:16.837Z,1.20
2022-09-17T15:12:08.729Z,1.50
2022-09-17T15:14:59.165Z,1.70
2022-09-17T15:17:48.108Z,1.63
2022-09-17T15:20:36.353Z,1.70
2022-09-17T15:23:28.010Z,1.10
2022-09-17T15:26:23.294Z,1.33
2022-09-17T15:29:13.508Z,1.40
2022-09-17T15:32:06.052Z,1.17
2022-09-17T15:35:24.378Z,1.10
2022-09-17T15:38:25.773Z,1.00
2022-09-17T15:41:30.002Z,0.80
2022-09-17T15:44:31.796Z,1.03
2022-09-17T15:47:55.126Z,0.87
2022-09-17T15:50:53.003Z,1.03
2022-09-17T15:53:51.911Z,0.60
2022-09-17T15:56:42.216Z,0.73
2022-09-17T15:59:32.067Z,0.70
2022-09-17T16:02:28.725Z,0.80
2022-09-17T16:05:50.847Z,1.00
2022-09-17T16:08:42.406Z,1.10
2022-09-17T16:11:32.887Z,1.07
2022-09-17T16:14:20.965Z,0.90
2022-09-17T16:17:46.232Z,0.90
2022-09-17T16:20:34.423Z,0.93
2022-09-17T16:23:23.958Z,0.90
2022-09-17T16:26:18.030Z,0.90
2022-09-17T16:29:11.536Z,1.00
2022-09-17T16:31:59.682Z,1.10
2022-09-17T16:34:47.819Z,1.10
2022-09-17T16:37:35.947Z,0.83
2022-09-17T16:40:29.130Z,0.90
2022-09-17T16:43:17.343Z,1.03
2022-09-17T16:46:07.773Z,1.07
2022-09-17T16:48:58.342Z,1.20
2022-09-17T16:51:46.530Z,1.50
2022-09-17T16:54:34.664Z,1.00
2022-09-17T16:57:24.169Z,1.60
2022-09-17T17:00:15.017Z,1.20
2022-09-17T17:03:03.267Z,1.27
2022-09-17T17:05:51.450Z,0.90
2022-09-17T17:08:39.578Z,0.90
2022-09-17T17:11:29.691Z,1.00
2022-09-17T17:14:19.576Z,0.87
2022-09-17T17:17:07.715Z,0.80
2022-09-17T17:19:55.877Z,1.00
2022-09-17T17:22:44.715Z,1.00
2022-09-17T17:25:33.165Z,1.10
2022-09-17T17:28:21.370Z,0.90
2022-09-17T17:31:11.378Z,1.07
2022-09-17T17:33:59.621Z,1.37
2022-09-17T17:36:49.651Z,0.90
2022-09-17T17:39:37.818Z,0.87
2022-09-17T17:42:26.081Z,1.40
2022-09-17T17:45:15.257Z,1.00
2022-09-17T17:48:05.329Z,1.00
2022-09-17T17:50:56.517Z,1.20
2022-09-17T17:53:45.844Z,1.00
2022-09-17T17:56:35.206Z,1.20
2022-09-17T17:59:23.494Z,1.40
2022-09-17T18:02:12.049Z,1.43
2022-09-17T18:05:04.298Z,1.20
2022-09-17T18:07:52.771Z,0.90
2022-09-17T18:10:40.934Z,1.33
2022-09-17T18:13:29.065Z,1.20
2022-09-17T18:16:17.332Z,1.87
2022-09-17T18:19:05.575Z,1.00
2022-09-17T18:21:56.472Z,1.57
2022-09-17T18:24:46.857Z,1.40
2022-09-17T18:27:34.972Z,1.20
2022-09-17T18:30:23.233Z,1.40
2022-09-17T18:33:11.385Z,1.50
2022-09-17T18:36:02.801Z,1.20
2022-09-17T18:39:03.547Z,1.30
2022-09-17T18:41:59.270Z,1.60
2022-09-17T18:44:47.590Z,1.63
2022-09-17T18:47:35.704Z,1.80
2022-09-17T18:50:23.984Z,1.70
2022-09-17T18:53:12.136Z,1.97
2022-09-17T18:56:04.856Z,2.30
2022-09-17T18:58:55.237Z,1.90
2022-09-17T19:01:43.558Z,2.20
2022-09-17T19:04:31.682Z,2.30
2022-09-17T19:07:19.798Z,2.10
2022-09-17T19:10:09.105Z,2.30
2022-09-17T19:12:58.674Z,1.70
2022-09-17T19:15:47.262Z,2.90
2022-09-17T19:18:36.954Z,2.63
2022-09-17T19:21:25.412Z,2.40
2022-09-17T19:24:13.550Z,2.40
2022-09-17T19:27:04.041Z,2.77
2022-09-17T19:29:57.685Z,2.40
2022-09-17T19:32:49.004Z,2.70
2022-09-17T19:35:43.012Z,2.23
2022-09-17T19:38:31.539Z,2.67
2022-09-17T19:41:23.004Z,2.80
2022-09-17T19:44:11.349Z,2.40
2022-09-17T19:47:05.307Z,2.53
2022-09-17T19:50:07.409Z,2.70
2022-09-17T19:56:43.701Z,2.40
2022-09-17T20:00:10.642Z,3.73
2022-09-17T20:03:23.478Z,2.87
2022-09-17T20:06:29.169Z,2.40
2022-09-17T20:09:31.921Z,2.33
2022-09-17T20:13:08.898Z,3.40
2022-09-17T20:16:48.477Z,2.43
2022-09-17T20:20:01.883Z,2.40
2022-09-17T20:23:12.442Z,2.07
2022-09-17T20:26:17.385Z,2.53
2022-09-17T20:29:22.372Z,2.43
2022-09-17T20:32:21.324Z,2.37
2022-09-17T20:45:26.536Z,2.67
2022-09-17T20:48:26.237Z,1.90
2022-09-17T20:51:27.250Z,2.13
2022-09-17T20:54:33.420Z,2.23
2022-09-17T20:57:38.174Z,2.00
2022-09-17T21:00:32.414Z,2.53
2022-09-17T21:03:40.586Z,1.97
2022-09-17T21:06:54.056Z,1.63
2022-09-17T21:10:24.767Z,1.90
2022-09-17T21:13:44.834Z,1.80
2022-09-17T21:16:52.051Z,1.93
2022-09-17T21:19:58.366Z,2.70
2022-09-17T21:26:36.466Z,1.47
2022-09-17T21:29:50.105Z,1.87
2022-09-17T21:33:05.650Z,2.03
2022-09-17T21:36:24.337Z,1.60
2022-09-17T21:39:19.181Z,1.37
2022-09-17T21:43:16.941Z,2.10
2022-09-17T21:46:36.487Z,1.57
2022-09-17T21:49:46.778Z,2.20
2022-09-17T21:53:04.382Z,1.70
2022-09-17T21:56:14.302Z,1.63
2022-09-17T21:59:09.213Z,1.50
2022-09-17T22:02:09.023Z,2.23
2022-09-17T22:05:16.027Z,1.87
2022-09-17T22:08:09.426Z,1.60
2022-09-17T22:11:25.699Z,1.70
2022-09-17T22:14:29.036Z,2.07
2022-09-17T22:17:28.453Z,1.80
2022-09-17T22:20:40.490Z,1.60
2022-09-17T22:23:50.027Z,2.37
2022-09-17T22:27:01.601Z,1.60
2022-09-17T22:30:14.969Z,2.00
2022-09-17T22:33:22.180Z,1.53
2022-09-17T22:36:32.557Z,1.63
2022-09-17T22:39:29.412Z,1.93
2022-09-17T22:42:38.302Z,1.63
2022-09-17T22:45:43.529Z,2.07
2022-09-17T22:48:55.228Z,1.57
2022-09-17T22:51:59.526Z,1.30
2022-09-17T22:55:09.236Z,1.53
2022-09-17T22:58:16.562Z,1.20
2022-09-17T23:01:42.518Z,2.03
2022-09-17T23:04:46.697Z,1.77
2022-09-17T23:08:03.913Z,1.67
2022-09-17T23:11:53.717Z,1.63
2022-09-17T23:15:06.371Z,1.30
2022-09-17T23:18:08.647Z,1.50
2022-09-17T23:21:30.802Z,1.47
2022-09-17T23:24:40.991Z,1.40
2022-09-17T23:27:40.681Z,1.50
2022-09-17T23:30:57.662Z,1.23
2022-09-17T23:34:03.872Z,1.27
2022-09-17T23:37:25.628Z,1.40
2022-09-17T23:40:24.113Z,1.40
2022-09-17T23:43:54.736Z,1.60
2022-09-17T23:47:09.248Z,1.70
2022-09-17T23:50:12.339Z,2.23
2022-09-17T23:53:35.801Z,1.70
2022-09-17T23:57:08.109Z,1.97
